メインページ
METAR-TAF:

METAR-TAF

空港 :

Nowshahr, イラン

緯度: 36-39-48N, 経度: 051-27-53E, 海抜: 0m

現時点の気象観測

当レポートは1時間0分前の09:00(UTC)に作成
北/北西の風 6kt
気温 13°C
湿度 82%
気圧 1027 hPa
視程10km以上
高度2000ftの雲はほとんどない, 積乱雲.
高度2500ftの雲は散在している
高度9000ftの千切れ雲あり

METAR: OINN 190900Z 33006KT 9999 FEW020CB SCT025 BKN090 13/10 Q1027

時間: 13:30 (10:00 UTC)


TAF: 見つかりません

4,000以上の空港の気象観測と天気予報(METAR報とTAF報)

利用可能な観測所は地図上に黄色い丸と赤い丸で示す。

丸の上にカーソルを重ねると観測所名を参照できる。

次にクリックすると気象観測と天気予報を参照できる。

マップの切り替え:黒色「×」印の緑ボタンをクリックして拡大、「-」印の緑ボタンをクリックして縮小、緑色の三角印をクリックして隣りの地図に切り替え


METAR-TAF: